Terminal Aerodrome Forecast
Issued by NWS

Home | Current Version | Previous Version | Graphics & Text | Print | Product List | Glossary On
Versions: 1 2 3 4 5 6 7 8 9 10 11 12 13 14 15 16 17 18
221
FTUS41 KCLE 202143 AAA
TAFFDY
TAF AMD
KFDY 202143Z 2022/2118 VRB05KT P6SM OVC020
      TEMPO 2023/2103 5SM -SHRA OVC012
     FM210300 36005KT P6SM OVC012
      TEMPO 2103/2107 4SM BR OVC009
     FM211400 34008KT P6SM OVC015=

USA.gov is the U.S. government's official web portal to all federal, state and local government web resources and services.